Jawor — C6YH8 — position and weather

sailwx.info

Track history (hours):
 
Tides and Currents Weather Stations Pressure Air Temp Water Temp Dewpoint Dewpoint Depression Visibility Wind Speed Wind Dir Waves Ship Positions

Jawor

Last reported at 2016-May-24 23:26 UTC. Time now 2016-May-29 19:15 UTC.
Position N 35°58' W 005°34'.

Length 229 m; draft 6.8 m.

Type: Cargo ship. MMSI: 311034100.

Date/timePositionNaut miles runAvg speedWind from/ knotsBaromVisibWave heightAir tempDewpointWater temp
2016-May-24 23:26N 35°58' W 005°34'8 9.5
2016-May-24 22:33N 36°01' W 005°24'6 6.0
2016-May-24 21:30N 36°07' W 005°22'0 0.0
2016-May-24 20:33N 36°07' W 005°22'0 0.0
2016-May-24 19:24N 36°07' W 005°22'0 0.1
2016-May-24 18:33N 36°07' W 005°22'0 0.2
2016-May-24 17:33N 36°08' W 005°22'0 0.0
2016-May-24 16:33N 36°08' W 005°22'0 0.1
2016-May-24 15:33N 36°08' W 005°22'0 0.1
2016-May-24 14:33N 36°08' W 005°22'0 0.1
2016-May-24 13:33N 36°08' W 005°22'3 3.2
2016-May-24 12:33N 36°05' W 005°21'1 1.2
2016-May-24 11:34N 36°05' W 005°19'48712.4
2016-May-22 20:27N 37°27' E 004°39'2712.2
2016-May-22 18:14N 37°30' E 005°13'912.1
2016-May-22 17:29N 37°30' E 005°25'3712.1
2016-May-22 14:26N 37°33' E 006°11'32312.0
2016-May-21 11:33N 36°51' E 012°53'1111.2
2016-May-21 10:34N 36°47' E 013°06'1111.0
2016-May-21 09:34N 36°44' E 013°19'1111.3
2016-May-21 08:33N 36°41' E 013°33'1111.2
2016-May-21 07:33N 36°37' E 013°46'1111.3
2016-May-21 06:34N 36°34' E 013°59'1111.4
2016-May-21 05:33N 36°30' E 014°13'1111.3
2016-May-21 04:33N 36°27' E 014°26'1111.1
2016-May-21 03:33N 36°24' E 014°40'1110.9
2016-May-21 02:33N 36°21' E 014°52'  
2016-May-17 03:32N 31°28' E 031°46'0 0.0
2016-May-17 02:26N 31°28' E 031°46'0 0.0
2016-May-17 00:14N 31°28' E 031°46'0 0.0
2016-May-16 18:17N 31°28' E 031°46'  
Track history (hours):
 
Tides and Currents Weather Stations Pressure Air Temp Water Temp Dewpoint Dewpoint Depression Visibility Wind Speed Wind Dir Waves Ship Positions

Jawor

Last reported at 2016-May-24 23:26 UTC. Time now 2016-May-29 19:15 UTC.
Position N 35°58' W 005°34'.

Length 229 m; draft 6.8 m.

Type: Cargo ship. MMSI: 311034100.

Date/timePositionNaut miles runAvg speedWind from/ knotsBaromVisibWave heightAir tempDewpointWater temp
2016-May-24 23:26N 35°58' W 005°34'8 9.5
2016-May-24 22:33N 36°01' W 005°24'6 6.0
2016-May-24 21:30N 36°07' W 005°22'0 0.0
2016-May-24 20:33N 36°07' W 005°22'0 0.0
2016-May-24 19:24N 36°07' W 005°22'0 0.1
2016-May-24 18:33N 36°07' W 005°22'0 0.2
2016-May-24 17:33N 36°08' W 005°22'0 0.0
2016-May-24 16:33N 36°08' W 005°22'0 0.1
2016-May-24 15:33N 36°08' W 005°22'0 0.1
2016-May-24 14:33N 36°08' W 005°22'0 0.1
2016-May-24 13:33N 36°08' W 005°22'3 3.2
2016-May-24 12:33N 36°05' W 005°21'1 1.2
2016-May-24 11:34N 36°05' W 005°19'48712.4
2016-May-22 20:27N 37°27' E 004°39'2712.2
2016-May-22 18:14N 37°30' E 005°13'912.1
2016-May-22 17:29N 37°30' E 005°25'3712.1
2016-May-22 14:26N 37°33' E 006°11'32312.0
2016-May-21 11:33N 36°51' E 012°53'1111.2
2016-May-21 10:34N 36°47' E 013°06'1111.0
2016-May-21 09:34N 36°44' E 013°19'1111.3
2016-May-21 08:33N 36°41' E 013°33'1111.2
2016-May-21 07:33N 36°37' E 013°46'1111.3
2016-May-21 06:34N 36°34' E 013°59'1111.4
2016-May-21 05:33N 36°30' E 014°13'1111.3
2016-May-21 04:33N 36°27' E 014°26'1111.1
2016-May-21 03:33N 36°24' E 014°40'1110.9
2016-May-21 02:33N 36°21' E 014°52'  
2016-May-17 03:32N 31°28' E 031°46'0 0.0
2016-May-17 02:26N 31°28' E 031°46'0 0.0
2016-May-17 00:14N 31°28' E 031°46'0 0.0
2016-May-16 18:17N 31°28' E 031°46'  

Dump ship's entire track history